Time;durP1;ratioP1;P1;durP2;ratioP2;P2;SDS_P1;SDS_P2;PMS_P1;PMS_P2;Temp;Humidity;BMP_temperature;BMP_pressure;BME280_temperature;BME280_humidity;BME280_pressure;Samples;Min_cycle;Max_cycle;Signal;HPM_P1;HPM_P2
2022/05/11 00:02:07;;;;;;;12.57;11.63;;;18.00;99.90;;;;;;5035876;28;20460;-67
2022/05/11 00:04:38;;;;;;;12.33;11.40;;;18.00;99.90;;;;;;5027501;28;20495;-67
2022/05/11 00:07:05;;;;;;;13.00;11.87;;;18.10;99.90;;;;;;5032672;28;20552;-67
2022/05/11 00:09:32;;;;;;;12.90;11.70;;;18.00;99.90;;;;;;5030919;28;20476;-67
2022/05/11 00:11:59;;;;;;;13.53;12.20;;;18.00;99.90;;;;;;5028827;28;20471;-67
2022/05/11 00:14:26;;;;;;;12.60;11.60;;;18.00;99.90;;;;;;5030116;28;20463;-67
2022/05/11 00:16:59;;;;;;;17.30;12.73;;;18.00;99.90;;;;;;5041069;28;20463;-67
2022/05/11 00:19:27;;;;;;;13.47;12.10;;;18.00;99.90;;;;;;5033140;28;21035;-67
2022/05/11 00:21:54;;;;;;;13.93;12.43;;;18.00;99.90;;;;;;5034073;28;20452;-69
2022/05/11 00:24:21;;;;;;;17.80;12.87;;;18.00;99.90;;;;;;5036107;28;20464;-67
2022/05/11 00:26:49;;;;;;;16.70;11.80;;;18.00;99.90;;;;;;5036784;28;20469;-67
2022/05/11 00:29:16;;;;;;;14.63;13.20;;;18.10;99.90;;;;;;5033000;28;20460;-67
2022/05/11 00:31:43;;;;;;;14.50;13.17;;;18.00;99.90;;;;;;5031083;28;20636;-68
2022/05/11 00:34:12;;;;;;;15.57;13.30;;;18.00;99.90;;;;;;5033151;28;20979;-67
2022/05/11 00:36:39;;;;;;;14.37;12.77;;;18.00;99.90;;;;;;5029649;28;20465;-67
2022/05/11 00:39:06;;;;;;;17.90;14.23;;;18.00;99.90;;;;;;5034563;28;20464;-67
2022/05/11 00:41:33;;;;;;;17.90;13.03;;;18.00;99.90;;;;;;5039921;28;20483;-67
2022/05/11 00:44:04;;;;;;;15.00;13.57;;;17.90;99.90;;;;;;5034298;28;20460;-67
2022/05/11 00:46:37;;;;;;;20.23;14.27;;;17.90;99.90;;;;;;5044282;28;20471;-67
2022/05/11 00:52:00;;;;;;;13.53;12.30;;;18.00;99.90;;;;;;5036438;28;20821;-66
2022/05/11 00:54:28;;;;;;;15.43;13.40;;;18.00;99.90;;;;;;5031604;28;20559;-66
2022/05/11 00:57:00;;;;;;;20.00;13.70;;;18.00;99.90;;;;;;5034143;28;20456;-67
2022/05/11 00:59:31;;;;;;;15.10;13.20;;;17.90;99.90;;;;;;5031613;28;21020;-67
2022/05/11 01:02:04;;;;;;;20.13;14.07;;;17.90;99.90;;;;;;5030873;28;20492;-67
2022/05/11 01:04:33;;;;;;;18.47;14.03;;;17.80;99.90;;;;;;5034617;28;20570;-67
2022/05/11 01:07:02;;;;;;;21.43;13.10;;;17.70;99.90;;;;;;5028361;28;20475;-67
2022/05/11 01:09:29;;;;;;;14.53;13.23;;;17.60;99.90;;;;;;5032372;28;20471;-67
2022/05/11 01:12:00;;;;;;;21.47;13.50;;;17.40;99.90;;;;;;5030369;28;20477;-67
2022/05/11 01:14:31;;;;;;;14.97;13.37;;;17.30;99.90;;;;;;5033974;28;20471;-67
2022/05/11 01:16:58;;;;;;;28.07;13.83;;;17.20;99.90;;;;;;5032800;28;20463;-67
2022/05/11 01:19:28;;;;;;;15.37;13.73;;;17.10;99.90;;;;;;5032291;28;20986;-67
2022/05/11 01:21:59;;;;;;;20.63;14.57;;;17.00;99.90;;;;;;5030064;28;20518;-67
2022/05/11 01:24:33;;;;;;;18.33;13.00;;;17.00;99.90;;;;;;5040244;28;20536;-67
2022/05/11 01:27:39;;;;;;;15.50;14.10;;;16.90;99.90;;;;;;5029642;28;20462;-67
2022/05/11 01:30:08;;;;;;;15.00;13.33;;;16.80;99.90;;;;;;5030237;28;20514;-67
2022/05/11 01:32:36;;;;;;;15.90;14.30;;;16.70;99.90;;;;;;5036137;28;20843;-67
2022/05/11 01:35:23;;;;;;;18.27;13.73;;;16.70;99.90;;;;;;5039940;28;20952;-67
2022/05/11 01:38:02;;;;;;;20.13;14.10;;;16.70;99.90;;;;;;5039562;28;20496;-67
2022/05/11 01:40:32;;;;;;;15.63;14.23;;;16.60;99.90;;;;;;5035244;28;20574;-67
2022/05/11 01:42:59;;;;;;;18.90;14.77;;;16.60;99.90;;;;;;5041132;28;20471;-67
2022/05/11 01:45:26;;;;;;;15.60;14.07;;;16.70;99.90;;;;;;5037345;28;20461;-67
2022/05/11 01:47:55;;;;;;;15.63;14.03;;;16.60;99.90;;;;;;5030728;28;20464;-68
2022/05/11 01:50:24;;;;;;;15.07;13.67;;;16.70;99.90;;;;;;5037639;28;20529;-67
2022/05/11 01:52:52;;;;;;;14.30;13.37;;;16.70;99.90;;;;;;5037258;28;20469;-68
2022/05/11 01:55:19;;;;;;;14.40;13.10;;;16.60;99.90;;;;;;5037578;28;20484;-66
2022/05/11 01:57:47;;;;;;;14.57;13.57;;;16.70;99.90;;;;;;5038933;28;20463;-67
2022/05/11 02:00:15;;;;;;;13.80;12.80;;;16.60;99.90;;;;;;5038939;28;20476;-67
2022/05/11 02:02:42;;;;;;;14.67;13.37;;;16.70;99.90;;;;;;5032263;28;20464;-67
2022/05/11 02:07:55;;;;;;;15.93;14.40;;;16.70;99.90;;;;;;5036890;28;20462;-67
2022/05/11 02:10:26;;;;;;;15.57;14.37;;;16.70;99.90;;;;;;5036733;28;20467;-67
2022/05/11 02:12:58;;;;;;;15.17;13.70;;;16.60;99.90;;;;;;5039321;28;20461;-67
2022/05/11 02:15:26;;;;;;;14.60;13.47;;;16.60;99.90;;;;;;5035448;28;20541;-67
2022/05/11 02:17:55;;;;;;;16.20;14.87;;;16.50;99.90;;;;;;5033369;28;20464;-67
2022/05/11 02:20:24;;;;;;;15.47;14.13;;;16.40;99.90;;;;;;5033472;28;20480;-67
2022/05/11 02:22:52;;;;;;;16.40;14.60;;;16.30;99.90;;;;;;5042719;28;20994;-68
2022/05/11 02:25:20;;;;;;;17.10;15.63;;;16.30;99.90;;;;;;5030541;28;20638;-67
2022/05/11 02:27:50;;;;;;;15.73;14.60;;;16.30;99.90;;;;;;5036699;28;20468;-67
2022/05/11 02:30:21;;;;;;;15.53;14.13;;;16.30;99.90;;;;;;5040400;28;20460;-67
2022/05/11 02:32:48;;;;;;;16.00;14.90;;;16.30;99.90;;;;;;5038853;28;20486;-67
2022/05/11 02:35:17;;;;;;;22.30;14.70;;;16.30;99.90;;;;;;5034474;28;20466;-67
2022/05/11 02:37:47;;;;;;;15.33;14.10;;;16.30;99.90;;;;;;5035995;28;20804;-67
2022/05/11 02:40:16;;;;;;;16.33;15.00;;;16.40;99.90;;;;;;5038762;28;20821;-67
2022/05/11 02:42:44;;;;;;;16.53;14.63;;;16.40;99.90;;;;;;5032302;28;20464;-67
2022/05/11 02:45:14;;;;;;;17.00;15.70;;;16.50;99.90;;;;;;5037698;28;20895;-67
2022/05/11 02:47:44;;;;;;;16.00;14.50;;;16.40;99.90;;;;;;5037001;28;20455;-67
2022/05/11 02:50:14;;;;;;;24.80;15.53;;;16.40;99.90;;;;;;5034456;28;20457;-66
2022/05/11 02:52:41;;;;;;;21.40;15.30;;;16.40;99.90;;;;;;5037262;28;20475;-67
2022/05/11 02:55:09;;;;;;;15.20;14.00;;;16.40;99.90;;;;;;5037259;28;20626;-67
2022/05/11 02:57:36;;;;;;;16.37;14.80;;;16.30;99.90;;;;;;5036091;28;20842;-67
2022/05/11 03:00:06;;;;;;;17.27;15.67;;;16.20;99.90;;;;;;5034242;28;20477;-67
2022/05/11 03:02:33;;;;;;;17.83;14.50;;;16.10;99.90;;;;;;5036731;28;20496;-67
2022/05/11 03:05:01;;;;;;;16.07;14.73;;;16.10;99.90;;;;;;5033846;28;20853;-67
2022/05/11 03:07:29;;;;;;;18.33;14.73;;;16.00;99.90;;;;;;5031066;28;20468;-67
2022/05/11 03:09:56;;;;;;;17.93;15.00;;;16.00;99.90;;;;;;5032832;28;20468;-67
2022/05/11 03:12:24;;;;;;;26.30;14.97;;;16.00;99.90;;;;;;5036311;28;20471;-67
2022/05/11 03:14:53;;;;;;;15.80;14.17;;;15.90;99.90;;;;;;5037651;28;20467;-67
2022/05/11 03:17:20;;;;;;;15.27;14.17;;;15.90;99.90;;;;;;5036291;28;20845;-66
2022/05/11 03:19:48;;;;;;;16.67;15.30;;;15.70;99.90;;;;;;5039252;28;20567;-66
2022/05/11 03:22:16;;;;;;;16.00;14.50;;;15.60;99.90;;;;;;5031526;28;20494;-67
2022/05/11 03:24:43;;;;;;;14.87;13.87;;;15.50;99.90;;;;;;5037479;28;20463;-67
2022/05/11 03:27:10;;;;;;;16.00;14.47;;;15.30;99.90;;;;;;5039505;28;20812;-67
2022/05/11 03:29:37;;;;;;;15.50;14.20;;;15.30;99.90;;;;;;5039791;28;20460;-66
2022/05/11 03:34:50;;;;;;;23.07;15.77;;;15.10;99.90;;;;;;5033165;28;20458;-67
2022/05/11 03:37:20;;;;;;;18.70;15.33;;;14.90;99.90;;;;;;5034941;28;20463;-66
2022/05/11 03:39:47;;;;;;;16.60;14.83;;;14.70;99.90;;;;;;5037677;28;20472;-67
2022/05/11 03:42:16;;;;;;;18.30;15.87;;;14.60;99.90;;;;;;5039524;28;20514;-67
2022/05/11 03:44:42;;;;;;;16.70;14.50;;;14.50;99.90;;;;;;5031539;28;20472;-67
2022/05/11 03:47:09;;;;;;;15.50;13.90;;;14.40;99.90;;;;;;5034195;28;20464;-66
2022/05/11 03:49:36;;;;;;;16.53;14.90;;;14.30;99.90;;;;;;5030370;28;21019;-67
2022/05/11 03:52:05;;;;;;;16.30;15.00;;;14.20;99.90;;;;;;5029311;28;20475;-67
2022/05/11 03:54:34;;;;;;;17.30;15.47;;;14.10;99.90;;;;;;5031275;28;20983;-66
2022/05/11 03:57:01;;;;;;;23.03;15.30;;;14.00;99.90;;;;;;5035568;28;20465;-67
2022/05/11 03:59:28;;;;;;;17.17;14.77;;;14.00;99.90;;;;;;5033298;28;20476;-67
2022/05/11 04:01:55;;;;;;;17.53;15.93;;;14.00;99.90;;;;;;5021845;28;20526;-67
2022/05/11 04:04:22;;;;;;;15.50;14.20;;;14.00;99.90;;;;;;5007402;28;20487;-66
2022/05/11 04:06:49;;;;;;;17.00;14.30;;;14.10;99.90;;;;;;5007577;28;20468;-67
2022/05/11 04:09:17;;;;;;;16.47;14.87;;;14.20;99.90;;;;;;5007295;28;21074;-67
2022/05/11 04:11:45;;;;;;;15.53;13.97;;;14.30;99.90;;;;;;5006625;28;20457;-67
2022/05/11 04:14:12;;;;;;;19.03;15.77;;;14.40;99.90;;;;;;5008220;28;20518;-67
2022/05/11 04:16:38;;;;;;;16.73;15.13;;;14.50;99.90;;;;;;5006031;28;20460;-67
2022/05/11 04:19:05;;;;;;;16.60;15.20;;;14.60;99.90;;;;;;5007413;28;22373;-67
2022/05/11 04:21:32;;;;;;;19.90;17.90;;;14.60;99.90;;;;;;5007335;28;20488;-66
2022/05/11 04:23:59;;;;;;;19.83;17.43;;;14.70;99.90;;;;;;5007057;28;20455;-66
2022/05/11 04:26:30;;;;;;;17.83;16.23;;;14.70;99.90;;;;;;5006859;28;20464;-67
2022/05/11 04:28:58;;;;;;;18.60;16.80;;;14.70;99.90;;;;;;5007145;28;20468;-67
2022/05/11 04:31:25;;;;;;;18.10;16.60;;;14.80;99.90;;;;;;5007790;28;20465;-67
2022/05/11 04:33:52;;;;;;;20.27;18.20;;;14.80;99.90;;;;;;5006761;28;21011;-67
2022/05/11 04:36:20;;;;;;;18.87;16.93;;;14.80;99.90;;;;;;5006706;28;20471;-66
2022/05/11 04:38:48;;;;;;;24.33;18.10;;;14.80;99.90;;;;;;5007000;28;20539;-67
2022/05/11 04:41:15;;;;;;;18.83;17.03;;;14.80;99.90;;;;;;5006696;28;20485;-67
2022/05/11 04:43:42;;;;;;;18.43;16.73;;;14.80;99.90;;;;;;5007250;28;20964;-66
2022/05/11 04:46:10;;;;;;;19.40;17.40;;;14.80;99.90;;;;;;5006656;28;20457;-67
2022/05/11 04:48:37;;;;;;;21.13;19.13;;;14.70;99.90;;;;;;5006380;28;20469;-67
2022/05/11 04:51:05;;;;;;;28.07;18.90;;;14.70;99.90;;;;;;5006296;28;20468;-67
2022/05/11 04:53:32;;;;;;;21.03;19.13;;;14.60;99.90;;;;;;5007342;28;20530;-66
2022/05/11 04:55:59;;;;;;;21.23;19.20;;;14.60;99.90;;;;;;5006450;28;20833;-68
2022/05/11 04:58:27;;;;;;;20.40;18.70;;;14.60;99.90;;;;;;5006795;28;20976;-67
2022/05/11 05:00:54;;;;;;;25.67;19.10;;;14.70;99.90;;;;;;5009435;28;20939;-68
2022/05/11 05:03:23;;;;;;;21.87;20.07;;;14.80;99.90;;;;;;5010735;28;20578;-66
2022/05/11 05:05:51;;;;;;;19.97;18.07;;;14.80;99.90;;;;;;5010078;28;20486;-68
2022/05/11 05:08:18;;;;;;;20.67;18.77;;;14.90;99.90;;;;;;5031296;28;20491;-67
2022/05/11 05:10:46;;;;;;;19.83;17.83;;;14.90;99.90;;;;;;5039561;28;20460;-67
2022/05/11 05:13:13;;;;;;;21.20;18.83;;;15.00;99.90;;;;;;5025018;28;20926;-67
2022/05/11 05:15:42;;;;;;;20.47;17.93;;;15.20;99.90;;;;;;5010646;28;20563;-67
2022/05/11 05:18:09;;;;;;;19.30;17.50;;;15.40;99.90;;;;;;5012551;28;20519;-67
2022/05/11 05:20:38;;;;;;;19.73;17.77;;;15.50;99.90;;;;;;5021830;28;20965;-66
2022/05/11 05:23:06;;;;;;;20.13;18.10;;;15.50;99.90;;;;;;5042366;28;21032;-67
2022/05/11 05:25:34;;;;;;;20.77;18.90;;;15.60;99.90;;;;;;5038123;28;20567;-67
2022/05/11 05:33:31;;;;;;;21.00;19.10;;;15.80;99.90;;;;;;5016773;28;20474;-67
2022/05/11 05:36:01;;;;;;;26.80;18.50;;;15.90;99.90;;;;;;5029512;28;20480;-66
2022/05/11 05:38:28;;;;;;;19.17;17.67;;;15.90;99.90;;;;;;5034425;28;20580;-67
2022/05/11 05:40:56;;;;;;;21.20;19.00;;;15.90;99.90;;;;;;5019246;28;20886;-67
2022/05/11 05:43:22;;;;;;;19.60;17.87;;;16.00;99.90;;;;;;5010661;28;20492;-67
2022/05/11 05:45:50;;;;;;;20.00;18.07;;;16.10;99.90;;;;;;5011452;28;20467;-67
2022/05/11 05:48:19;;;;;;;20.47;18.53;;;16.10;99.90;;;;;;5009463;28;20492;-67
2022/05/11 05:50:46;;;;;;;19.70;18.00;;;16.10;99.90;;;;;;5011954;28;20457;-66
2022/05/11 05:53:19;;;;;;;20.27;18.37;;;16.20;99.90;;;;;;5013079;28;20515;-67
2022/05/11 05:55:46;;;;;;;20.10;18.53;;;16.20;99.90;;;;;;5012093;28;20729;-67
2022/05/11 05:58:13;;;;;;;19.93;18.00;;;16.20;99.90;;;;;;5011697;28;20464;-67
2022/05/11 06:00:39;;;;;;;19.70;17.83;;;16.40;99.90;;;;;;5009878;28;21002;-66
2022/05/11 06:03:06;;;;;;;20.43;18.23;;;16.50;99.90;;;;;;5008490;28;22848;-67
2022/05/11 06:05:34;;;;;;;19.47;17.57;;;16.50;99.90;;;;;;5009279;28;20483;-67
2022/05/11 06:08:01;;;;;;;20.53;18.80;;;16.50;99.90;;;;;;5008669;28;20547;-67
2022/05/11 06:10:29;;;;;;;18.33;16.77;;;16.60;99.90;;;;;;5009007;28;20472;-68
2022/05/11 06:12:56;;;;;;;19.60;17.73;;;16.70;99.90;;;;;;5007863;28;20959;-67
2022/05/11 06:15:25;;;;;;;19.70;17.80;;;16.80;99.90;;;;;;5008706;28;20475;-68
2022/05/11 06:17:51;;;;;;;19.40;17.70;;;16.90;99.90;;;;;;5008978;28;20475;-67
2022/05/11 06:20:18;;;;;;;18.97;17.00;;;17.00;99.90;;;;;;5009277;28;22823;-68
2022/05/11 06:22:45;;;;;;;17.97;16.30;;;17.10;99.90;;;;;;5008489;28;20499;-68
2022/05/11 06:25:12;;;;;;;18.20;16.77;;;17.20;99.90;;;;;;5008377;28;20512;-68
2022/05/11 06:27:40;;;;;;;18.17;16.73;;;17.30;99.90;;;;;;5007262;28;20478;-67
2022/05/11 06:30:08;;;;;;;20.00;18.30;;;17.30;99.90;;;;;;5007217;28;20471;-67
2022/05/11 06:32:36;;;;;;;18.60;17.03;;;17.50;99.90;;;;;;5006837;28;20471;-68
2022/05/11 06:35:03;;;;;;;19.30;17.63;;;17.60;99.90;;;;;;5007814;28;20522;-68
2022/05/11 06:37:30;;;;;;;18.30;16.67;;;17.60;99.90;;;;;;5007324;28;20468;-68
2022/05/11 06:39:58;;;;;;;17.13;15.80;;;17.80;99.90;;;;;;5008165;28;20475;-68
2022/05/11 06:42:25;;;;;;;17.60;15.90;;;18.00;99.90;;;;;;5008599;28;20801;-68
2022/05/11 06:44:53;;;;;;;19.30;17.60;;;18.00;99.90;;;;;;5008274;28;20539;-68
2022/05/11 06:47:21;;;;;;;16.27;15.27;;;18.20;99.90;;;;;;5008875;28;20467;-68
2022/05/11 06:49:48;;;;;;;16.87;15.77;;;18.40;99.90;;;;;;5008881;28;20467;-68
2022/05/11 06:52:17;;;;;;;17.10;16.10;;;18.50;99.90;;;;;;5008805;28;20797;-68
2022/05/11 07:00:16;;;;;;;16.83;15.63;;;18.80;99.90;;;;;;5005652;28;20538;-67
2022/05/11 07:02:43;;;;;;;16.80;15.90;;;18.90;99.90;;;;;;4998187;28;20860;-67
2022/05/11 07:05:11;;;;;;;16.77;15.77;;;19.00;99.90;;;;;;5003249;28;20491;-67
2022/05/11 07:07:39;;;;;;;18.30;16.80;;;19.00;99.90;;;;;;5003427;28;20464;-67
2022/05/11 07:10:07;;;;;;;18.00;16.33;;;19.10;99.90;;;;;;5002966;28;21315;-68
2022/05/11 07:12:35;;;;;;;16.70;15.70;;;19.10;99.90;;;;;;5003441;28;20474;-68
2022/05/11 07:15:05;;;;;;;17.67;16.37;;;19.20;99.90;;;;;;5001983;28;20512;-67
2022/05/11 07:17:35;;;;;;;16.57;15.47;;;19.30;99.90;;;;;;5003619;28;20473;-67
2022/05/11 07:20:04;;;;;;;17.33;16.23;;;19.30;99.90;;;;;;5001713;28;20508;-67
2022/05/11 07:22:31;;;;;;;16.83;15.73;;;19.40;99.90;;;;;;5001110;28;20746;-67
2022/05/11 07:24:58;;;;;;;17.30;15.70;;;19.50;99.90;;;;;;5002533;28;20460;-67
2022/05/11 07:27:26;;;;;;;16.97;15.77;;;19.50;99.90;;;;;;5018020;28;20464;-68
2022/05/11 07:29:54;;;;;;;16.83;15.80;;;19.60;99.90;;;;;;5003595;28;20468;-67
2022/05/11 07:32:23;;;;;;;16.40;15.40;;;19.70;99.90;;;;;;5000976;28;20538;-68
2022/05/11 07:34:51;;;;;;;16.00;15.00;;;19.70;99.90;;;;;;4998124;28;20476;-67
2022/05/11 07:37:18;;;;;;;17.00;15.60;;;19.70;99.90;;;;;;4996742;28;20460;-68
2022/05/11 07:39:45;;;;;;;16.60;15.40;;;19.80;99.90;;;;;;5002302;28;20474;-67
2022/05/11 07:42:13;;;;;;;17.83;16.63;;;19.80;99.90;;;;;;5002189;28;20493;-67
2022/05/11 07:44:40;;;;;;;17.50;16.40;;;19.80;99.90;;;;;;5002374;28;20742;-68
2022/05/11 07:47:10;;;;;;;16.97;15.67;;;19.80;99.90;;;;;;5002164;28;20469;-67
2022/05/11 07:49:37;;;;;;;17.70;16.60;;;19.80;99.90;;;;;;5003285;28;21022;-68
2022/05/11 07:52:06;;;;;;;17.70;16.40;;;19.90;99.90;;;;;;5003010;28;20484;-67
2022/05/11 07:54:33;;;;;;;18.47;17.07;;;20.00;99.90;;;;;;5002291;28;20473;-67
2022/05/11 07:59:56;;;;;;;18.40;16.83;;;20.10;99.90;;;;;;5004528;28;20533;-69
2022/05/11 08:02:26;;;;;;;18.43;17.10;;;20.20;99.90;;;;;;5004240;28;20543;-67
2022/05/11 08:04:55;;;;;;;18.57;17.27;;;20.30;99.90;;;;;;5006420;28;20498;-67
2022/05/11 08:07:25;;;;;;;18.67;17.37;;;20.30;99.90;;;;;;5007611;28;20527;-68
2022/05/11 08:09:52;;;;;;;22.03;17.87;;;20.20;99.90;;;;;;5006291;28;20472;-67
2022/05/11 08:12:19;;;;;;;17.73;16.57;;;20.20;99.90;;;;;;5000610;28;21033;-67
2022/05/11 08:14:46;;;;;;;17.80;16.43;;;20.40;99.90;;;;;;5011785;28;20471;-68
2022/05/11 08:17:13;;;;;;;18.47;17.27;;;20.50;99.90;;;;;;5002148;28;20457;-67
2022/05/11 08:19:43;;;;;;;18.20;17.10;;;20.50;99.90;;;;;;5005997;28;20468;-67
2022/05/11 08:22:10;;;;;;;18.80;17.63;;;20.70;99.90;;;;;;5002268;28;20496;-67
2022/05/11 08:24:40;;;;;;;18.63;17.50;;;21.00;99.90;;;;;;5003155;28;21243;-67
2022/05/11 08:27:09;;;;;;;18.37;16.90;;;21.50;99.90;;;;;;5003875;28;20468;-67
2022/05/11 08:35:02;;;;;;;18.70;17.20;;;23.20;99.90;;;;;;4990860;28;20923;-67
2022/05/11 08:37:29;;;;;;;17.33;16.40;;;23.60;99.90;;;;;;5006618;28;20504;-68
2022/05/11 08:39:57;;;;;;;18.60;17.40;;;24.00;99.90;;;;;;5005501;28;21088;-67
2022/05/11 08:42:27;;;;;;;17.80;16.80;;;23.90;99.90;;;;;;5007588;28;20532;-67
2022/05/11 08:44:53;;;;;;;18.97;17.87;;;23.80;99.90;;;;;;5004924;28;20633;-68
2022/05/11 08:47:30;;;;;;;18.50;17.13;;;24.10;99.90;;;;;;5006782;28;20459;-68
2022/05/11 08:50:09;;;;;;;18.67;17.30;;;24.80;99.90;;;;;;5006570;28;20460;-67
2022/05/11 08:52:43;;;;;;;18.47;17.27;;;24.90;99.90;;;;;;5005428;28;20986;-67
2022/05/11 08:55:18;;;;;;;19.17;17.90;;;24.80;99.90;;;;;;5005842;28;20971;-68
2022/05/11 08:57:48;;;;;;;18.00;16.80;;;24.40;99.90;;;;;;5006590;28;20483;-68
2022/05/11 09:00:19;;;;;;;18.87;17.67;;;24.00;99.90;;;;;;5006165;28;20488;-67
2022/05/11 09:02:50;;;;;;;18.90;17.80;;;23.90;99.90;;;;;;5006515;28;20484;-68
2022/05/11 09:05:20;;;;;;;19.07;17.70;;;24.70;99.70;;;;;;5005712;28;20484;-68
2022/05/11 09:07:51;;;;;;;19.57;17.70;;;24.70;98.80;;;;;;5005538;28;20526;-68
2022/05/11 09:10:24;;;;;;;18.10;17.00;;;24.50;98.80;;;;;;5006101;28;21144;-68
2022/05/11 09:12:59;;;;;;;18.60;17.20;;;24.40;99.20;;;;;;5028372;28;20984;-67
2022/05/11 09:15:48;;;;;;;18.60;17.07;;;24.70;98.00;;;;;;5027604;28;20824;-67
2022/05/11 09:18:15;;;;;;;17.97;16.60;;;24.30;98.30;;;;;;5031982;28;20464;-68
2022/05/11 09:20:47;;;;;;;18.87;17.20;;;24.40;97.70;;;;;;5004721;28;21310;-68
2022/05/11 09:23:14;;;;;;;18.10;16.93;;;24.70;98.40;;;;;;5005068;28;20591;-68
2022/05/11 09:25:59;;;;;;;17.80;16.90;;;25.10;97.00;;;;;;5004645;28;20456;-69
2022/05/11 09:28:29;;;;;;;17.57;16.47;;;25.00;97.80;;;;;;5005454;28;21086;-68
2022/05/11 09:30:59;;;;;;;18.63;17.03;;;25.40;96.90;;;;;;5004515;28;20463;-68
2022/05/11 09:33:28;;;;;;;17.93;16.83;;;25.20;95.80;;;;;;5009777;28;20932;-68
2022/05/11 09:35:55;;;;;;;18.83;16.97;;;25.50;97.00;;;;;;5006856;28;20749;-68
2022/05/11 09:38:37;;;;;;;17.87;16.63;;;25.90;95.40;;;;;;5006727;28;20801;-69
2022/05/11 09:41:12;;;;;;;18.43;16.70;;;25.90;95.60;;;;;;5007026;28;20554;-68
2022/05/11 09:43:43;;;;;;;18.30;16.90;;;26.20;94.50;;;;;;5024415;28;20573;-67
2022/05/11 09:46:19;;;;;;;18.40;17.00;;;26.60;94.30;;;;;;5025955;28;20468;-68
2022/05/11 09:49:01;;;;;;;17.27;16.13;;;26.70;93.40;;;;;;5028374;28;20468;-68
2022/05/11 09:51:33;;;;;;;18.40;17.20;;;27.00;94.40;;;;;;5003727;28;20464;-68
2022/05/11 09:54:19;;;;;;;17.07;16.13;;;26.70;93.30;;;;;;5003934;28;20459;-68
2022/05/11 09:56:56;;;;;;;17.67;16.50;;;26.50;93.40;;;;;;5002934;28;20503;-68
2022/05/11 09:59:25;;;;;;;17.50;16.40;;;26.50;92.60;;;;;;5004931;28;20482;-68
2022/05/11 10:01:58;;;;;;;17.67;16.67;;;26.50;92.60;;;;;;5003942;28;20830;-67
2022/05/11 10:04:32;;;;;;;18.63;17.30;;;26.60;93.00;;;;;;5003415;28;20937;-68
2022/05/11 10:06:59;;;;;;;17.90;16.50;;;26.50;92.10;;;;;;5003653;28;20461;-68
2022/05/11 10:09:31;;;;;;;18.40;16.90;;;27.40;92.70;;;;;;5028699;28;20464;-68
2022/05/11 10:12:01;;;;;;;18.13;16.83;;;27.20;91.60;;;;;;5027831;28;20445;-68
2022/05/11 10:22:58;;;;;;;17.47;16.20;;;26.70;90.20;;;;;;5003309;28;20618;-68
2022/05/11 10:25:27;;;;;;;17.27;16.07;;;27.00;91.50;;;;;;5003862;28;22674;-68
2022/05/11 10:28:05;;;;;;;18.17;16.70;;;26.40;90.90;;;;;;5003667;28;20465;-68
2022/05/11 10:30:38;;;;;;;18.10;15.93;;;26.50;90.80;;;;;;5017394;28;20719;-68
2022/05/11 10:33:35;;;;;;;17.03;16.13;;;27.40;90.40;;;;;;5025554;28;20468;-68
2022/05/11 10:36:08;;;;;;;16.50;15.60;;;27.70;90.00;;;;;;5021875;28;20504;-68
2022/05/11 10:38:48;;;;;;;17.77;16.17;;;27.60;89.50;;;;;;5002345;28;20472;-67
2022/05/11 10:41:23;;;;;;;18.37;16.50;;;27.20;91.10;;;;;;5003208;28;20464;-68
2022/05/11 10:44:12;;;;;;;18.13;16.60;;;26.50;91.10;;;;;;5003557;28;20491;-69
2022/05/11 10:46:44;;;;;;;16.37;15.57;;;26.10;90.10;;;;;;5003760;28;21138;-68
2022/05/11 10:49:35;;;;;;;16.83;15.50;;;26.50;90.70;;;;;;5014794;28;20468;-68
2022/05/11 10:52:14;;;;;;;16.77;15.90;;;26.90;90.20;;;;;;4994027;28;20460;-68
2022/05/11 10:54:52;;;;;;;17.27;16.20;;;27.70;89.20;;;;;;5003308;28;21161;-69
2022/05/11 10:57:27;;;;;;;18.43;16.90;;;28.30;87.30;;;;;;5003126;28;20460;-69
2022/05/11 11:00:09;;;;;;;18.27;17.27;;;28.10;85.80;;;;;;5001037;28;20574;-68
2022/05/11 11:02:51;;;;;;;18.03;16.73;;;27.50;85.70;;;;;;5001553;28;21456;-68
2022/05/11 11:05:26;;;;;;;16.17;15.20;;;27.10;86.50;;;;;;5003347;28;20499;-68
2022/05/11 11:08:04;;;;;;;16.90;15.90;;;27.50;86.30;;;;;;5002597;28;20991;-68
2022/05/11 11:10:40;;;;;;;16.93;15.93;;;27.30;85.50;;;;;;5003292;28;20598;-69
2022/05/11 11:13:32;;;;;;;17.47;16.27;;;27.80;86.90;;;;;;5003853;28;20452;-68
2022/05/11 11:16:03;;;;;;;17.80;16.77;;;28.30;87.30;;;;;;5003517;28;20479;-69
2022/05/11 11:18:33;;;;;;;17.90;16.43;;;28.10;87.20;;;;;;5002540;28;21230;-68
2022/05/11 11:21:03;;;;;;;17.30;16.20;;;28.40;88.00;;;;;;5003253;28;20498;-68
2022/05/11 11:23:35;;;;;;;17.20;16.20;;;28.40;85.90;;;;;;5003088;28;21242;-68
2022/05/11 11:26:05;;;;;;;19.07;17.40;;;27.80;83.50;;;;;;5002101;28;21178;-68
2022/05/11 11:28:35;;;;;;;17.77;16.60;;;27.70;84.10;;;;;;5002375;28;20451;-68
2022/05/11 11:31:23;;;;;;;16.87;15.90;;;28.10;86.10;;;;;;5004283;28;20460;-69
2022/05/11 11:34:11;;;;;;;17.40;16.10;;;28.20;84.60;;;;;;5002190;28;21082;-68
2022/05/11 11:36:41;;;;;;;17.57;16.30;;;28.40;82.50;;;;;;5002604;28;21133;-68
2022/05/11 11:42:08;;;;;;;19.00;17.50;;;28.90;85.10;;;;;;5003815;28;20531;-69
2022/05/11 11:44:43;;;;;;;17.27;16.17;;;29.40;83.40;;;;;;5002613;28;20511;-69
2022/05/11 11:47:42;;;;;;;17.20;15.97;;;29.60;78.70;;;;;;5003228;28;20472;-69
2022/05/11 11:50:29;;;;;;;18.07;17.07;;;29.40;79.30;;;;;;5024513;28;20467;-68
2022/05/11 11:53:10;;;;;;;17.50;16.00;;;29.30;77.00;;;;;;5025456;28;20479;-68
2022/05/11 11:55:36;;;;;;;17.97;16.80;;;29.30;78.40;;;;;;5012390;28;20988;-69
2022/05/11 11:58:15;;;;;;;16.80;15.90;;;29.30;77.70;;;;;;5002537;28;21289;-68
2022/05/11 12:01:09;;;;;;;17.63;16.70;;;29.40;81.20;;;;;;5025270;28;20487;-68
2022/05/11 12:03:51;;;;;;;17.83;16.47;;;29.80;81.10;;;;;;4979866;28;21258;-69
2022/05/11 12:17:33;;;;;;;19.23;17.40;;;30.00;79.70;;;;;;5000803;28;21029;-68
2022/05/11 12:20:08;;;;;;;18.30;16.83;;;30.40;79.40;;;;;;4995326;28;21038;-69
2022/05/11 12:22:40;;;;;;;17.00;16.03;;;30.40;76.10;;;;;;4999977;28;20589;-68
2022/05/11 12:25:21;;;;;;;18.13;16.80;;;31.00;75.40;;;;;;4999858;28;20492;-69
2022/05/11 12:27:49;;;;;;;18.10;16.37;;;31.30;76.30;;;;;;5000200;28;20562;-69
2022/05/11 12:30:23;;;;;;;18.23;17.13;;;30.70;76.70;;;;;;4999363;28;20475;-69
2022/05/11 12:32:53;;;;;;;17.87;16.77;;;30.70;77.60;;;;;;4999379;28;20452;-69
2022/05/11 12:35:26;;;;;;;18.27;16.90;;;30.70;77.10;;;;;;4999079;28;20484;-68
2022/05/11 12:37:55;;;;;;;17.00;15.90;;;31.40;73.70;;;;;;4999914;28;20467;-69
2022/05/11 12:40:23;;;;;;;16.97;15.97;;;31.40;72.00;;;;;;4999560;28;21026;-69
2022/05/11 12:42:52;;;;;;;17.83;16.43;;;31.80;73.50;;;;;;4998831;28;20448;-69
2022/05/11 12:45:23;;;;;;;17.63;16.20;;;31.90;71.50;;;;;;5024684;28;20494;-68
2022/05/11 12:47:54;;;;;;;18.00;16.37;;;31.70;72.20;;;;;;5028595;28;20667;-68
2022/05/11 12:50:24;;;;;;;17.53;16.50;;;32.00;71.00;;;;;;5032985;28;20463;-68
2022/05/11 12:53:03;;;;;;;18.07;17.07;;;31.70;70.60;;;;;;5021282;28;20469;-69
2022/05/11 12:55:33;;;;;;;19.03;17.13;;;31.70;68.60;;;;;;4997193;28;20460;-69
2022/05/11 12:58:01;;;;;;;18.07;16.40;;;31.80;69.40;;;;;;5000014;28;20856;-69
2022/05/11 13:00:30;;;;;;;18.50;16.67;;;31.70;72.20;;;;;;5028035;28;20679;-70
2022/05/11 13:02:57;;;;;;;18.70;17.40;;;31.50;69.60;;;;;;5022856;28;20502;-69
2022/05/11 13:05:28;;;;;;;17.10;16.00;;;31.50;67.60;;;;;;5016573;28;20498;-69
2022/05/11 13:08:00;;;;;;;16.80;15.80;;;31.50;67.70;;;;;;5000804;28;20468;-69
2022/05/11 13:10:31;;;;;;;16.40;15.50;;;31.10;71.70;;;;;;5007196;28;20579;-69
2022/05/11 13:12:59;;;;;;;16.90;15.80;;;31.30;70.90;;;;;;5010448;28;20466;-69
2022/05/11 13:15:37;;;;;;;17.50;16.40;;;31.60;69.40;;;;;;4999025;28;21139;-70
2022/05/11 13:18:06;;;;;;;15.77;14.77;;;31.90;67.20;;;;;;4999759;28;20491;-69
2022/05/11 13:20:38;;;;;;;16.20;15.40;;;32.00;64.80;;;;;;5001117;28;20575;-70
2022/05/11 13:23:19;;;;;;;17.83;16.33;;;32.20;67.80;;;;;;5002818;28;20468;-69
2022/05/11 13:25:48;;;;;;;16.50;15.47;;;32.60;66.70;;;;;;5003339;28;20480;-70
2022/05/11 13:28:22;;;;;;;17.30;16.30;;;32.90;65.50;;;;;;5004146;28;20730;-69
2022/05/11 13:30:50;;;;;;;17.03;15.33;;;33.00;63.70;;;;;;5003754;28;20993;-69
2022/05/11 13:33:39;;;;;;;18.13;16.23;;;33.10;67.20;;;;;;5003849;28;20834;-69
2022/05/11 13:36:15;;;;;;;16.90;15.60;;;32.30;64.30;;;;;;5004166;28;20476;-69